Time;durP1;ratioP1;P1;durP2;ratioP2;P2;SDS_P1;SDS_P2;PMS_P1;PMS_P2;Temp;Humidity;BMP_temperature;BMP_pressure;BME280_temperature;BME280_humidity;BME280_pressure;Samples;Min_cycle;Max_cycle;Signal;HPM_P1;HPM_P2
2022/01/19 00:00:01;;;;;;;;;;;;;;;14.89;59.91;102959.84;1057849;28;1897;-59
2022/01/19 00:00:51;;;;;;;;;;;;;;;14.89;60.36;102958.97;1053375;28;812;-59
2022/01/19 00:01:42;;;;;;;;;;;;;;;14.89;60.66;102959.84;1055052;28;1930;-59
2022/01/19 00:02:32;;;;;;;;;;;;;;;14.88;59.81;102951.88;1057504;28;740;-59
2022/01/19 00:03:22;;;;;;;;;;;;;;;14.87;60.16;102940.25;1057045;28;978;-60
2022/01/19 00:04:13;;;;;;;;;;;;;;;14.87;60.11;102939.41;1055155;28;1908;-59
2022/01/19 00:05:03;;;;;;;;;;;;;;;14.88;60.21;102942.00;1055229;28;769;-59
2022/01/19 00:05:54;;;;;;;;;;;;;;;14.88;59.74;102944.69;1054609;28;668;-59
2022/01/19 00:06:44;;;;;;;;;;;;;;;14.87;59.86;102929.53;1055297;28;681;-59
2022/01/19 00:07:35;;;;;;;;;;;;;;;14.86;60.03;102935.00;1055046;28;1963;-59
2022/01/19 00:08:26;;;;;;;;;;;;;;;14.85;59.81;102934.13;1055329;28;722;-59
2022/01/19 00:09:17;;;;;;;;;;;;;;;14.85;59.83;102927.91;1057513;28;1497;-59
2022/01/19 00:10:10;;;;;;;;;;;;;;;14.87;59.76;102923.28;1058085;28;617;-59
2022/01/19 00:11:00;;;;;;;;;;;;;;;14.86;60.30;102926.94;1057588;28;735;-59
2022/01/19 00:11:50;;;;;;;;;;;;;;;14.84;59.74;102927.03;1054537;28;1795;-59
2022/01/19 00:12:43;;;;;;;;;;;;;;;14.83;59.85;102925.28;1054136;28;1990;-59
2022/01/19 00:13:33;;;;;;;;;;;;;;;14.83;60.30;102932.47;1054652;28;913;-60
2022/01/19 00:14:23;;;;;;;;;;;;;;;14.83;60.46;102925.28;1055890;28;2130;-60
2022/01/19 00:15:14;;;;;;;;;;;;;;;14.82;60.72;102923.53;1051658;28;664;-60
2022/01/19 00:16:04;;;;;;;;;;;;;;;14.81;59.92;102916.44;1054375;28;703;-60
2022/01/19 00:16:55;;;;;;;;;;;;;;;14.80;59.91;102920.06;1054597;28;706;-60
2022/01/19 00:17:45;;;;;;;;;;;;;;;14.82;59.88;102915.50;1054527;28;2032;-60
2022/01/19 00:18:35;;;;;;;;;;;;;;;14.80;60.10;102912.00;1055184;28;682;-60
2022/01/19 00:19:26;;;;;;;;;;;;;;;14.82;60.18;102915.50;1054669;28;782;-60
2022/01/19 00:20:16;;;;;;;;;;;;;;;14.81;60.19;102920.94;1054543;28;672;-60
2022/01/19 00:21:07;;;;;;;;;;;;;;;14.80;60.35;102916.50;1055288;28;821;-60
2022/01/19 00:21:57;;;;;;;;;;;;;;;14.81;59.99;102912.88;1054983;28;1025;-60
2022/01/19 00:22:47;;;;;;;;;;;;;;;14.80;60.39;102920.06;1054543;28;1971;-60
2022/01/19 00:23:38;;;;;;;;;;;;;;;14.80;60.59;102922.75;1055250;28;654;-60
2022/01/19 00:24:28;;;;;;;;;;;;;;;14.79;59.86;102929.06;1055206;28;722;-60
2022/01/19 00:25:19;;;;;;;;;;;;;;;14.78;60.30;102926.44;1055149;28;708;-60
2022/01/19 00:26:09;;;;;;;;;;;;;;;14.79;60.16;102925.50;1055031;28;771;-59
2022/01/19 00:26:59;;;;;;;;;;;;;;;14.79;60.23;102915.63;1053957;28;764;-59
2022/01/19 00:27:50;;;;;;;;;;;;;;;14.80;60.58;102916.50;1054630;28;741;-59
2022/01/19 00:28:40;;;;;;;;;;;;;;;14.78;59.88;102908.53;1055657;28;2013;-59
2022/01/19 00:29:31;;;;;;;;;;;;;;;14.79;60.35;102899.53;1054594;28;685;-59
2022/01/19 00:30:21;;;;;;;;;;;;;;;14.78;60.00;102897.78;1054600;28;2148;-60
2022/01/19 00:31:11;;;;;;;;;;;;;;;14.78;60.45;102886.19;1058137;28;641;-59
2022/01/19 00:32:02;;;;;;;;;;;;;;;14.77;60.23;102879.06;1058338;28;740;-59
2022/01/19 00:32:52;;;;;;;;;;;;;;;14.77;59.98;102882.63;1054129;28;1974;-59
2022/01/19 00:33:43;;;;;;;;;;;;;;;14.77;60.20;102881.75;1054413;28;823;-59
2022/01/19 00:34:33;;;;;;;;;;;;;;;14.76;59.91;102877.34;1054470;28;950;-60
2022/01/19 00:35:23;;;;;;;;;;;;;;;14.75;60.10;102865.72;1053961;28;783;-59
2022/01/19 00:36:14;;;;;;;;;;;;;;;14.76;60.53;102870.16;1055170;28;637;-59
2022/01/19 00:37:04;;;;;;;;;;;;;;;14.75;60.33;102865.72;1054177;28;1820;-60
2022/01/19 00:37:55;;;;;;;;;;;;;;;14.74;59.84;102855.94;1054943;28;785;-59
2022/01/19 00:38:45;;;;;;;;;;;;;;;14.74;59.89;102852.38;1056299;28;1839;-60
2022/01/19 00:39:35;;;;;;;;;;;;;;;14.73;60.14;102856.88;1051791;28;2347;-59
2022/01/19 00:40:26;;;;;;;;;;;;;;;14.73;60.49;102851.50;1053504;28;747;-60
2022/01/19 00:41:16;;;;;;;;;;;;;;;14.73;60.17;102843.47;1057664;28;1084;-60
2022/01/19 00:42:07;;;;;;;;;;;;;;;14.73;60.15;102839.91;1057530;28;855;-60
2022/01/19 00:42:57;;;;;;;;;;;;;;;14.73;59.88;102835.41;1053934;28;840;-60
2022/01/19 00:43:47;;;;;;;;;;;;;;;14.73;59.80;102830.03;1054561;28;831;-59
2022/01/19 00:44:38;;;;;;;;;;;;;;;14.74;60.38;102820.19;1055588;28;1801;-59
2022/01/19 00:45:29;;;;;;;;;;;;;;;14.73;60.27;102813.94;1055460;28;1782;-59
2022/01/19 00:46:19;;;;;;;;;;;;;;;14.71;60.73;102815.84;1055107;28;637;-60
2022/01/19 00:47:09;;;;;;;;;;;;;;;14.69;60.33;102812.34;1055102;28;1970;-59
2022/01/19 00:48:00;;;;;;;;;;;;;;;14.71;59.75;102818.50;1053986;28;744;-60
2022/01/19 00:48:50;;;;;;;;;;;;;;;14.72;60.47;102811.34;1054495;28;793;-60
2022/01/19 00:49:42;;;;;;;;;;;;;;;14.72;59.84;102817.56;1054525;28;793;-60
2022/01/19 00:50:33;;;;;;;;;;;;;;;14.70;60.74;102819.47;1054546;28;637;-60
2022/01/19 00:51:23;;;;;;;;;;;;;;;14.70;60.01;102816.78;1054488;28;846;-59
2022/01/19 00:52:13;;;;;;;;;;;;;;;14.70;60.36;102818.59;1051281;28;1180;-59
2022/01/19 00:53:04;;;;;;;;;;;;;;;14.69;59.84;102812.34;1053013;28;830;-60
2022/01/19 00:53:54;;;;;;;;;;;;;;;14.70;60.22;102814.09;1054410;28;1878;-60
2022/01/19 00:54:45;;;;;;;;;;;;;;;14.70;60.13;102811.41;1055569;28;1997;-60
2022/01/19 00:55:35;;;;;;;;;;;;;;;14.69;60.35;102812.34;1054456;28;771;-60
2022/01/19 00:56:27;;;;;;;;;;;;;;;14.70;59.87;102810.53;1054514;28;691;-60
2022/01/19 00:57:17;;;;;;;;;;;;;;;14.70;59.97;102802.50;1055024;28;740;-60
2022/01/19 00:58:08;;;;;;;;;;;;;;;14.68;60.08;102809.78;1053958;28;853;-59
2022/01/19 00:58:59;;;;;;;;;;;;;;;14.67;60.28;102805.34;1054509;28;1915;-60
2022/01/19 00:59:51;;;;;;;;;;;;;;;14.66;60.57;102811.66;1054443;28;780;-59
2022/01/19 01:00:42;;;;;;;;;;;;;;;14.65;60.26;102809.94;1056579;28;2200;-60
2022/01/19 01:01:32;;;;;;;;;;;;;;;14.65;60.00;102810.81;1054368;28;777;-59
2022/01/19 01:02:22;;;;;;;;;;;;;;;14.66;59.86;102812.53;1055026;28;624;-59
2022/01/19 01:03:13;;;;;;;;;;;;;;;14.67;60.04;102813.41;1054991;28;1306;-59
2022/01/19 01:04:03;;;;;;;;;;;;;;;14.66;60.12;102820.59;1056385;28;1946;-59
2022/01/19 01:04:54;;;;;;;;;;;;;;;14.65;59.96;102824.22;1057141;28;1940;-59
2022/01/19 01:05:44;;;;;;;;;;;;;;;14.64;59.70;102825.16;1058456;28;807;-59
2022/01/19 01:06:35;;;;;;;;;;;;;;;14.64;59.88;102816.25;1058010;28;678;-59
2022/01/19 01:07:27;;;;;;;;;;;;;;;14.66;60.20;102812.53;1057215;28;1921;-59
2022/01/19 01:08:17;;;;;;;;;;;;;;;14.65;60.30;102808.13;1054486;28;613;-59
2022/01/19 01:09:07;;;;;;;;;;;;;;;14.65;59.71;102809.94;1054996;28;942;-59
2022/01/19 01:09:58;;;;;;;;;;;;;;;14.63;59.88;102801.94;1054867;28;1975;-59
2022/01/19 01:10:49;;;;;;;;;;;;;;;14.62;60.47;102800.22;1055078;28;712;-59
2022/01/19 01:11:48;;;;;;;;;;;;;;;14.61;60.70;102792.25;1054185;28;636;-59
2022/01/19 01:13:16;;;;;;;;;;;;;;;14.62;60.38;102788.63;1057266;28;2068;-59
2022/01/19 01:16:04;;;;;;;;;;;;;;;14.61;60.24;102781.50;1058552;28;696;-59
2022/01/19 01:17:12;;;;;;;;;;;;;;;14.62;60.07;102784.13;1054476;28;2002;-59
2022/01/19 01:18:53;;;;;;;;;;;;;;;14.60;59.68;102791.38;1054325;28;689;-59
2022/01/19 01:19:43;;;;;;;;;;;;;;;14.59;59.86;102798.56;1054999;28;736;-59
2022/01/19 01:20:34;;;;;;;;;;;;;;;14.61;60.18;102793.09;1054228;28;911;-59
2022/01/19 01:21:24;;;;;;;;;;;;;;;14.61;59.75;102787.75;1054970;28;617;-59
2022/01/19 01:22:14;;;;;;;;;;;;;;;14.60;59.39;102783.31;1054216;28;1184;-59
2022/01/19 01:23:05;;;;;;;;;;;;;;;14.59;59.49;102776.22;1054334;28;788;-59
2022/01/19 01:23:55;;;;;;;;;;;;;;;14.60;60.26;102775.28;1054417;28;1878;-59
2022/01/19 01:24:46;;;;;;;;;;;;;;;14.58;60.48;102766.44;1054635;28;1843;-59
2022/01/19 01:25:36;;;;;;;;;;;;;;;14.59;59.82;102762.81;1054867;28;948;-59
2022/01/19 01:26:26;;;;;;;;;;;;;;;14.59;59.53;102769.03;1053723;28;848;-59
2022/01/19 01:27:17;;;;;;;;;;;;;;;14.58;60.12;102769.97;1054891;28;1975;-59
2022/01/19 01:28:07;;;;;;;;;;;;;;;14.57;60.54;102775.41;1054475;28;712;-59
2022/01/19 01:28:56;;;;;;;;;;;;;;;14.57;60.32;102770.94;1054822;28;1816;-59
2022/01/19 01:29:45;;;;;;;;;;;;;;;14.57;59.99;102778.09;1054743;28;1648;-59
2022/01/19 01:30:34;;;;;;;;;;;;;;;14.57;60.11;102778.97;1056715;28;2006;-59
2022/01/19 01:31:23;;;;;;;;;;;;;;;14.59;60.46;102776.22;1054485;28;933;-60
2022/01/19 01:32:12;;;;;;;;;;;;;;;14.58;59.99;102769.97;1054481;28;1824;-59
2022/01/19 01:33:02;;;;;;;;;;;;;;;14.57;60.32;102772.75;1057636;28;1913;-59
2022/01/19 01:33:53;;;;;;;;;;;;;;;14.55;59.79;102758.53;1057313;28;806;-59
2022/01/19 01:34:43;;;;;;;;;;;;;;;14.55;59.84;102755.84;1058030;28;859;-59
2022/01/19 01:35:33;;;;;;;;;;;;;;;14.55;59.69;102751.34;1057278;28;700;-59
2022/01/19 01:36:24;;;;;;;;;;;;;;;14.54;60.21;102754.97;1054152;28;1869;-59
2022/01/19 01:37:14;;;;;;;;;;;;;;;14.55;59.85;102747.81;1057130;28;1230;-59
2022/01/19 01:38:05;;;;;;;;;;;;;;;14.55;60.07;102751.34;1057221;28;690;-59
2022/01/19 01:38:55;;;;;;;;;;;;;;;14.53;60.30;102742.50;1057662;28;2094;-59
2022/01/19 01:39:46;;;;;;;;;;;;;;;14.53;60.31;102739.81;1057272;28;689;-59
2022/01/19 01:40:36;;;;;;;;;;;;;;;14.54;59.73;102733.50;1057010;28;1859;-60
2022/01/19 01:41:26;;;;;;;;;;;;;;;14.52;59.75;102729.16;1053599;28;768;-59
2022/01/19 01:42:17;;;;;;;;;;;;;;;14.52;60.04;102722.00;1054377;28;1968;-58
2022/01/19 01:43:07;;;;;;;;;;;;;;;14.52;59.87;102715.75;1053557;28;843;-59
2022/01/19 01:43:58;;;;;;;;;;;;;;;14.50;60.50;102704.28;1054914;28;735;-59
2022/01/19 01:44:51;;;;;;;;;;;;;;;14.50;60.27;102701.59;1058186;28;1861;-59
2022/01/19 01:45:43;;;;;;;;;;;;;;;14.50;60.00;102702.44;1057863;28;915;-59
2022/01/19 01:46:44;;;;;;;;;;;;;;;14.51;60.04;102695.28;1054237;28;943;-58
2022/01/19 01:47:40;;;;;;;;;;;;;;;14.50;60.18;102693.53;1054144;28;2218;-58
2022/01/19 01:48:31;;;;;;;;;;;;;;;14.49;60.06;102692.66;1053692;28;1915;-59
2022/01/19 01:49:29;;;;;;;;;;;;;;;14.50;60.18;102688.16;1057866;28;851;-59
2022/01/19 01:53:47;;;;;;;;;;;;;;;14.48;60.05;102687.38;1050597;28;874;-58
2022/01/19 01:54:38;;;;;;;;;;;;;;;14.47;59.77;102694.56;1051256;28;2001;-58
2022/01/19 01:55:28;;;;;;;;;;;;;;;14.46;60.58;102683.91;1054305;28;715;-58
2022/01/19 01:56:19;;;;;;;;;;;;;;;14.47;59.78;102691.00;1054286;28;625;-58
2022/01/19 01:57:09;;;;;;;;;;;;;;;14.47;60.21;102688.31;1050656;28;819;-58
2022/01/19 01:57:59;;;;;;;;;;;;;;;14.48;59.85;102690.94;1050023;28;861;-58
2022/01/19 01:58:50;;;;;;;;;;;;;;;14.45;60.08;102685.72;1050077;28;790;-58
2022/01/19 01:59:40;;;;;;;;;;;;;;;14.47;60.22;102685.63;1046640;28;666;-59
2022/01/19 02:00:31;;;;;;;;;;;;;;;14.45;60.05;102685.72;1046595;28;2070;-58
2022/01/19 02:01:21;;;;;;;;;;;;;;;14.47;60.09;102685.63;1050515;28;769;-58
2022/01/19 02:02:11;;;;;;;;;;;;;;;14.46;59.65;102690.13;1049408;28;927;-58
2022/01/19 02:03:02;;;;;;;;;;;;;;;14.46;60.24;102691.94;1050596;28;1179;-59
2022/01/19 02:03:52;;;;;;;;;;;;;;;14.44;60.68;102688.47;1050013;28;830;-59
2022/01/19 02:04:43;;;;;;;;;;;;;;;14.43;60.00;102697.47;1050011;28;724;-59
2022/01/19 02:05:37;;;;;;;;;;;;;;;14.44;60.23;102704.56;1050105;28;624;-59
2022/01/19 02:06:32;;;;;;;;;;;;;;;14.46;59.71;102703.56;1050567;28;947;-59
2022/01/19 02:07:39;;;;;;;;;;;;;;;14.45;60.31;102706.31;1050766;28;1920;-59
2022/01/19 02:08:37;;;;;;;;;;;;;;;14.46;59.82;102708.03;1049394;28;819;-59
2022/01/19 02:09:32;;;;;;;;;;;;;;;14.45;59.56;102703.63;1050061;28;632;-59
2022/01/19 02:16:24;;;;;;;;;;;;;;;14.42;59.90;102668.91;1053571;28;739;-59
2022/01/19 02:21:38;;;;;;;;;;;;;;;14.40;60.15;102668.09;1054781;28;688;-59
2022/01/19 02:21:38;;;;;;;;;;;;;;;14.39;60.44;102658.31;1049951;28;701;-59
2022/01/19 02:22:06;;;;;;;;;;;;;;;14.40;59.72;102654.66;1050246;28;1777;-59
2022/01/19 02:22:59;;;;;;;;;;;;;;;14.38;59.70;102660.13;1049283;28;878;-59
2022/01/19 02:23:52;;;;;;;;;;;;;;;14.39;59.50;102653.81;1050548;28;827;-59
2022/01/19 02:24:45;;;;;;;;;;;;;;;14.39;59.78;102663.66;1051207;28;1134;-59
2022/01/19 02:25:41;;;;;;;;;;;;;;;14.37;60.06;102663.75;1045495;28;692;-59
2022/01/19 02:26:51;;;;;;;;;;;;;;;14.36;60.48;102661.13;1046144;28;705;-59
2022/01/19 02:29:03;;;;;;;;;;;;;;;14.36;59.97;102670.06;1050563;28;666;-59
2022/01/19 02:40:14;;;;;;;;;;;;;;;14.33;60.01;102626.47;1049234;28;824;-59
2022/01/19 02:41:05;;;;;;;;;;;;;;;14.31;59.82;102629.22;1050044;28;753;-59
2022/01/19 02:41:57;;;;;;;;;;;;;;;14.32;60.20;102620.22;1049781;28;857;-59
2022/01/19 02:43:06;;;;;;;;;;;;;;;14.30;60.30;102616.75;1053180;28;2090;-59
2022/01/19 02:43:57;;;;;;;;;;;;;;;14.31;60.34;102609.56;1054608;28;727;-59
2022/01/19 02:50:01;;;;;;;;;;;;;;;14.25;60.05;102592.84;1051653;28;1045;-59
2022/01/19 02:50:52;;;;;;;;;;;;;;;14.28;59.89;102588.28;1054676;28;735;-59
2022/01/19 02:51:42;;;;;;;;;;;;;;;14.29;59.49;102579.28;1054573;28;721;-59
2022/01/19 02:52:32;;;;;;;;;;;;;;;14.29;59.45;102587.34;1055828;28;1870;-59
2022/01/19 02:53:23;;;;;;;;;;;;;;;14.28;60.00;102578.41;1057784;28;658;-59
2022/01/19 02:54:13;;;;;;;;;;;;;;;14.27;60.42;102582.03;1057696;28;924;-59
2022/01/19 02:55:04;;;;;;;;;;;;;;;14.27;60.47;102590.09;1057718;28;727;-59
2022/01/19 02:55:54;;;;;;;;;;;;;;;14.27;59.59;102586.53;1057733;28;759;-59
2022/01/19 02:56:49;;;;;;;;;;;;;;;14.26;59.51;102580.31;1057284;28;1857;-60
2022/01/19 02:57:41;;;;;;;;;;;;;;;14.27;59.97;102578.50;1057623;28;672;-60
2022/01/19 02:58:36;;;;;;;;;;;;;;;14.28;59.41;102581.09;1050329;28;1961;-60
2022/01/19 03:08:41;;;;;;;;;;;;;;;14.24;59.46;102552.69;1054612;28;880;-59
2022/01/19 03:08:46;;;;;;;;;;;;;;;14.22;59.64;102544.75;1054615;28;779;-60
2022/01/19 03:09:37;;;;;;;;;;;;;;;14.21;60.07;102543.00;1054050;28;777;-60
2022/01/19 03:10:27;;;;;;;;;;;;;;;14.20;60.20;102541.25;1054066;28;696;-59
2022/01/19 03:11:17;;;;;;;;;;;;;;;14.21;59.70;102542.13;1054029;28;569;-59
2022/01/19 03:12:08;;;;;;;;;;;;;;;14.20;59.52;102541.25;1054036;28;1267;-59
2022/01/19 03:12:58;;;;;;;;;;;;;;;14.20;60.37;102541.25;1054030;28;779;-59
2022/01/19 03:13:49;;;;;;;;;;;;;;;14.19;60.31;102536.84;1053410;28;652;-59
2022/01/19 03:14:39;;;;;;;;;;;;;;;14.19;60.29;102539.53;1055724;28;1758;-59
2022/01/19 03:15:30;;;;;;;;;;;;;;;14.20;59.79;102540.41;1054619;28;700;-59
2022/01/19 03:16:20;;;;;;;;;;;;;;;14.20;60.00;102538.59;1054590;28;713;-59
2022/01/19 03:17:12;;;;;;;;;;;;;;;14.22;59.69;102539.38;1054438;28;791;-59
2022/01/19 03:18:02;;;;;;;;;;;;;;;14.20;59.80;102535.03;1054145;28;834;-59
2022/01/19 03:18:52;;;;;;;;;;;;;;;14.20;59.57;102530.53;1054453;28;1894;-59
2022/01/19 03:19:45;;;;;;;;;;;;;;;14.22;59.70;102539.38;1054018;28;763;-59
2022/01/19 03:20:35;;;;;;;;;;;;;;;14.22;60.07;102530.47;1054640;28;684;-59
2022/01/19 03:21:25;;;;;;;;;;;;;;;14.21;59.77;102531.41;1053993;28;789;-59
2022/01/19 03:22:18;;;;;;;;;;;;;;;14.20;60.43;102529.69;1050126;28;724;-59
2022/01/19 03:23:42;;;;;;;;;;;;;;;14.21;59.31;102534.97;1050842;28;1503;-59
2022/01/19 03:24:25;;;;;;;;;;;;;;;14.19;59.49;102535.97;1058859;28;679;-59
2022/01/19 03:25:16;;;;;;;;;;;;;;;14.17;60.33;102536.06;1057521;28;754;-59
2022/01/19 03:26:07;;;;;;;;;;;;;;;14.18;59.80;102536.94;1057814;28;798;-59
2022/01/19 03:26:57;;;;;;;;;;;;;;;14.17;59.66;102519.97;1057778;28;735;-59
2022/01/19 03:27:48;;;;;;;;;;;;;;;14.18;60.06;102526.22;1057189;28;2041;-59
2022/01/19 03:28:38;;;;;;;;;;;;;;;14.16;59.79;102520.06;1057795;28;676;-59
2022/01/19 03:29:28;;;;;;;;;;;;;;;14.15;59.71;102524.56;1057591;28;774;-59
2022/01/19 03:30:19;;;;;;;;;;;;;;;14.15;59.84;102518.34;1057715;28;629;-59
2022/01/19 03:31:09;;;;;;;;;;;;;;;14.15;59.98;102515.66;1057802;28;1398;-59
2022/01/19 03:32:00;;;;;;;;;;;;;;;14.15;59.78;102511.16;1053816;28;1844;-59
2022/01/19 03:32:50;;;;;;;;;;;;;;;14.14;59.75;102506.75;1054153;28;713;-59
2022/01/19 03:33:41;;;;;;;;;;;;;;;14.15;60.10;102507.63;1053773;28;721;-59
2022/01/19 03:34:31;;;;;;;;;;;;;;;14.14;59.70;102497.84;1055170;28;747;-59
2022/01/19 03:35:21;;;;;;;;;;;;;;;14.15;59.99;102502.25;1053459;28;631;-59
2022/01/19 03:36:12;;;;;;;;;;;;;;;14.13;60.25;102488.94;1053315;28;860;-59
2022/01/19 03:37:03;;;;;;;;;;;;;;;14.13;59.35;102491.63;1053543;28;1322;-59
2022/01/19 03:37:53;;;;;;;;;;;;;;;14.12;60.12;102481.84;1053445;28;726;-58
2022/01/19 03:38:44;;;;;;;;;;;;;;;14.11;59.52;102482.78;1056794;28;2120;-59
2022/01/19 03:39:34;;;;;;;;;;;;;;;14.12;59.12;102480.97;1057595;28;670;-59
2022/01/19 03:40:24;;;;;;;;;;;;;;;14.12;59.53;102483.66;1057557;28;780;-59
2022/01/19 03:41:15;;;;;;;;;;;;;;;14.11;59.57;102485.47;1057716;28;703;-59
2022/01/19 03:42:06;;;;;;;;;;;;;;;14.12;60.13;102489.88;1057664;28;781;-59
2022/01/19 03:42:57;;;;;;;;;;;;;;;14.12;59.26;102489.88;1057609;28;814;-59
2022/01/19 03:43:47;;;;;;;;;;;;;;;14.12;59.87;102489.88;1057729;28;785;-59
2022/01/19 03:44:39;;;;;;;;;;;;;;;14.11;59.62;102490.84;1057404;28;811;-60
2022/01/19 03:45:32;;;;;;;;;;;;;;;14.11;59.44;102498.00;1054793;28;692;-60
2022/01/19 03:46:32;;;;;;;;;;;;;;;14.10;60.23;102494.47;1054215;28;822;-60
2022/01/19 03:47:22;;;;;;;;;;;;;;;14.10;59.65;102502.50;1054735;28;1901;-60
2022/01/19 03:49:12;;;;;;;;;;;;;;;14.12;60.10;102495.25;1054767;28;1850;-59
2022/01/19 03:50:02;;;;;;;;;;;;;;;14.12;60.11;102494.38;1054720;28;1153;-60
2022/01/19 03:50:52;;;;;;;;;;;;;;;14.10;60.15;102502.50;1055243;28;792;-60
2022/01/19 03:51:43;;;;;;;;;;;;;;;14.09;59.69;102505.25;1054165;28;822;-60
2022/01/19 03:52:33;;;;;;;;;;;;;;;14.10;59.49;102501.63;1055138;28;1850;-59
2022/01/19 03:53:24;;;;;;;;;;;;;;;14.11;59.67;102501.56;1055334;28;621;-59
2022/01/19 03:54:14;;;;;;;;;;;;;;;14.10;59.86;102497.16;1054867;28;641;-59
2022/01/19 03:55:04;;;;;;;;;;;;;;;14.09;59.71;102492.72;1055405;27;1707;-60
2022/01/19 03:55:55;;;;;;;;;;;;;;;14.08;59.30;102492.81;1050698;28;890;-60
2022/01/19 03:56:45;;;;;;;;;;;;;;;14.08;60.03;102488.31;1050962;28;1206;-60
2022/01/19 03:57:36;;;;;;;;;;;;;;;14.07;60.21;102481.22;1054530;28;771;-59
2022/01/19 03:58:26;;;;;;;;;;;;;;;14.09;59.15;102490.03;1055862;27;2074;-59
2022/01/19 03:59:16;;;;;;;;;;;;;;;14.08;59.21;102482.94;1054050;28;786;-58
2022/01/19 04:00:07;;;;;;;;;;;;;;;14.05;59.94;102476.88;1050927;28;878;-59
2022/01/19 04:00:58;;;;;;;;;;;;;;;14.06;60.11;102478.63;1050691;28;801;-58
2022/01/19 04:01:53;;;;;;;;;;;;;;;14.06;59.21;102484.84;1054090;28;773;-59
2022/01/19 04:02:43;;;;;;;;;;;;;;;14.07;59.98;102480.34;1053150;28;751;-58
2022/01/19 04:05:04;;;;;;;;;;;;;;;14.06;59.34;102483.97;1041285;28;855;-59
2022/01/19 04:06:16;;;;;;;;;;;;;;;14.05;59.21;102483.09;1053249;28;979;-59
2022/01/19 04:07:56;;;;;;;;;;;;;;;14.04;59.47;102492.09;1059394;28;1897;-59
2022/01/19 04:08:47;;;;;;;;;;;;;;;14.04;59.36;102489.41;1058176;28;811;-59
2022/01/19 04:09:37;;;;;;;;;;;;;;;14.03;59.76;102490.38;1058307;28;746;-60
2022/01/19 04:10:28;;;;;;;;;;;;;;;14.04;59.37;102489.41;1057426;28;1969;-60
2022/01/19 04:11:20;;;;;;;;;;;;;;;14.04;59.14;102492.09;1054675;28;853;-60
2022/01/19 04:12:13;;;;;;;;;;;;;;;14.05;59.67;102491.16;1054691;28;684;-60
2022/01/19 04:13:23;;;;;;;;;;;;;;;14.04;59.42;102485.88;1054109;28;755;-59
2022/01/19 04:14:22;;;;;;;;;;;;;;;14.02;59.38;102490.44;1054502;28;2080;-59
2022/01/19 04:15:13;;;;;;;;;;;;;;;14.02;59.43;102494.00;1054073;28;2017;-59
2022/01/19 04:16:03;;;;;;;;;;;;;;;14.02;59.94;102488.63;1054758;28;717;-60
2022/01/19 04:16:54;;;;;;;;;;;;;;;14.03;59.13;102490.38;1055206;28;704;-60
2022/01/19 04:17:50;;;;;;;;;;;;;;;14.01;59.20;102489.56;1054084;28;859;-60
2022/01/19 04:18:41;;;;;;;;;;;;;;;14.03;59.56;102489.50;1054541;28;693;-60
2022/01/19 04:20:24;;;;;;;;;;;;;;;14.01;59.74;102492.25;1054617;28;684;-60
2022/01/19 04:21:14;;;;;;;;;;;;;;;14.01;59.60;102488.69;1054146;28;664;-59
2022/01/19 04:22:05;;;;;;;;;;;;;;;14.00;60.02;102489.66;1053746;28;996;-60
2022/01/19 04:22:55;;;;;;;;;;;;;;;14.01;59.50;102481.53;1054168;28;1736;-59
2022/01/19 04:23:45;;;;;;;;;;;;;;;14.01;59.31;102489.56;1055220;28;950;-59
2022/01/19 04:24:36;;;;;;;;;;;;;;;14.02;59.68;102487.75;1054720;28;669;-59
2022/01/19 04:25:26;;;;;;;;;;;;;;;14.00;60.00;102485.16;1055145;28;755;-58
2022/01/19 04:26:17;;;;;;;;;;;;;;;14.00;59.68;102485.16;1054646;28;789;-59
2022/01/19 04:28:07;;;;;;;;;;;;;;;14.00;59.64;102485.16;1054492;28;852;-59
2022/01/19 04:28:58;;;;;;;;;;;;;;;13.97;59.92;102487.16;1053082;28;1823;-59
2022/01/19 04:29:54;;;;;;;;;;;;;;;13.98;59.78;102486.19;1053735;28;717;-59
2022/01/19 04:30:44;;;;;;;;;;;;;;;13.99;59.29;102482.56;1058358;28;721;-59
2022/01/19 04:31:35;;;;;;;;;;;;;;;13.98;59.38;102484.38;1058102;28;2032;-59
2022/01/19 04:32:33;;;;;;;;;;;;;;;13.97;59.38;102482.66;1054544;28;944;-59
2022/01/19 04:33:26;;;;;;;;;;;;;;;13.97;60.10;102484.47;1055145;28;912;-59
2022/01/19 04:34:18;;;;;;;;;;;;;;;13.96;59.15;102477.38;1055847;28;1926;-59
2022/01/19 04:35:11;;;;;;;;;;;;;;;13.97;59.68;102479.97;1054674;28;788;-59
2022/01/19 04:36:26;;;;;;;;;;;;;;;13.97;60.12;102474.63;1054088;28;714;-59
2022/01/19 04:39:27;;;;;;;;;;;;;;;13.96;59.91;102472.91;1054964;28;704;-59
2022/01/19 04:45:19;;;;;;;;;;;;;;;13.93;59.67;102456.97;1054756;28;1786;-59
2022/01/19 04:46:40;;;;;;;;;;;;;;;13.93;59.31;102454.28;1058177;28;1663;-59
2022/01/19 04:49:06;;;;;;;;;;;;;;;13.94;59.86;102453.34;1058710;28;711;-58
2022/01/19 04:54:48;;;;;;;;;;;;;;;13.92;59.89;102446.31;1057146;28;1804;-59
2022/01/19 05:04:03;;;;;;;;;;;;;;;13.90;58.94;102441.03;1059089;27;749;-58
2022/01/19 05:06:11;;;;;;;;;;;;;;;13.91;59.11;102453.50;1059214;27;783;-58
2022/01/19 05:07:10;;;;;;;;;;;;;;;13.91;59.08;102442.78;1058036;28;903;-58
2022/01/19 05:08:14;;;;;;;;;;;;;;;13.93;59.20;102446.25;1056593;28;1779;-59
2022/01/19 05:09:39;;;;;;;;;;;;;;;13.96;58.92;102445.22;1054177;28;731;-59
2022/01/19 05:13:52;;;;;;;;;;;;;;;14.10;58.23;102431.94;1054965;28;820;-58
2022/01/19 05:14:43;;;;;;;;;;;;;;;14.13;58.22;102432.63;1054986;28;727;-59
2022/01/19 05:15:33;;;;;;;;;;;;;;;14.17;57.54;102436.84;1053827;28;656;-58
2022/01/19 05:16:24;;;;;;;;;;;;;;;14.19;57.36;102437.66;1054351;28;774;-58
2022/01/19 05:17:14;;;;;;;;;;;;;;;14.21;57.30;102433.06;1054312;28;637;-59
2022/01/19 05:18:05;;;;;;;;;;;;;;;14.23;57.14;102439.22;1054262;28;733;-58
2022/01/19 05:18:56;;;;;;;;;;;;;;;14.28;56.96;102430.06;1053763;28;712;-58
2022/01/19 05:19:46;;;;;;;;;;;;;;;14.28;57.45;102428.25;1054956;28;702;-58
2022/01/19 05:20:37;;;;;;;;;;;;;;;14.32;56.93;102424.44;1053830;28;915;-59
2022/01/19 05:21:27;;;;;;;;;;;;;;;14.35;56.88;102420.72;1054304;28;818;-59
2022/01/19 05:22:18;;;;;;;;;;;;;;;14.37;56.97;102418.81;1054791;28;877;-59
2022/01/19 05:23:08;;;;;;;;;;;;;;;14.40;57.34;102419.53;1055171;28;1732;-58
2022/01/19 05:24:03;;;;;;;;;;;;;;;14.42;57.09;102411.41;1058075;28;772;-58
2022/01/19 05:24:53;;;;;;;;;;;;;;;14.44;56.47;102407.69;1058061;28;736;-58
2022/01/19 05:25:44;;;;;;;;;;;;;;;14.46;57.01;102408.47;1057990;28;716;-58
2022/01/19 05:26:36;;;;;;;;;;;;;;;14.49;56.77;102402.09;1057914;28;947;-58
2022/01/19 05:27:27;;;;;;;;;;;;;;;14.52;56.76;102402.75;1057304;28;2079;-58
2022/01/19 05:28:17;;;;;;;;;;;;;;;14.54;57.13;102405.34;1053797;28;759;-59
2022/01/19 05:29:07;;;;;;;;;;;;;;;14.54;56.70;102399.97;1054777;28;775;-58
2022/01/19 05:29:58;;;;;;;;;;;;;;;14.57;56.56;102405.19;1054942;28;781;-58
2022/01/19 05:30:48;;;;;;;;;;;;;;;14.57;56.83;102395.31;1053784;28;1749;-59
2022/01/19 05:31:39;;;;;;;;;;;;;;;14.61;56.53;102395.16;1055001;28;688;-59
2022/01/19 05:32:29;;;;;;;;;;;;;;;14.60;56.43;102399.63;1054853;28;632;-59
2022/01/19 05:33:19;;;;;;;;;;;;;;;14.62;56.40;102396.88;1054778;28;982;-60
2022/01/19 05:34:10;;;;;;;;;;;;;;;14.61;56.72;102393.31;1054330;28;787;-59
2022/01/19 05:35:00;;;;;;;;;;;;;;;14.61;56.43;102395.16;1054280;28;922;-59
2022/01/19 05:35:51;;;;;;;;;;;;;;;14.63;57.13;102398.59;1057349;28;1437;-59
2022/01/19 05:36:41;;;;;;;;;;;;;;;14.63;57.03;102398.59;1057787;28;1382;-59
2022/01/19 05:37:36;;;;;;;;;;;;;;;14.64;56.32;102395.84;1056614;28;1642;-59
2022/01/19 05:38:26;;;;;;;;;;;;;;;14.66;56.72;102391.25;1055529;28;1452;-59
2022/01/19 05:39:17;;;;;;;;;;;;;;;14.66;56.60;102399.31;1058050;28;1415;-59
2022/01/19 05:40:07;;;;;;;;;;;;;;;14.67;56.36;102384.94;1054235;28;786;-59
2022/01/19 05:40:58;;;;;;;;;;;;;;;14.66;56.73;102383.22;1054245;28;749;-59
2022/01/19 05:41:48;;;;;;;;;;;;;;;14.67;56.87;102390.31;1054287;28;761;-59
2022/01/19 05:42:38;;;;;;;;;;;;;;;14.69;56.86;102387.53;1055911;28;1948;-59
2022/01/19 05:43:29;;;;;;;;;;;;;;;14.71;56.85;102385.59;1057761;28;773;-59
2022/01/19 05:44:19;;;;;;;;;;;;;;;14.69;56.46;102383.00;1058550;28;944;-59